createdAt,value
2019-01-04T00:02:18.282Z,97.10
2019-01-04T00:05:06.308Z,97.00
2019-01-04T00:07:54.182Z,97.00
2019-01-04T00:10:42.579Z,97.00
2019-01-04T00:13:31.227Z,97.00
2019-01-04T00:16:19.902Z,97.30
2019-01-04T00:19:08.307Z,97.40
2019-01-04T00:21:56.848Z,97.40
2019-01-04T00:24:44.642Z,97.20
2019-01-04T00:27:32.430Z,96.80
2019-01-04T00:30:21.081Z,97.00
2019-01-04T00:33:08.778Z,97.00
2019-01-04T00:35:56.721Z,97.00
2019-01-04T00:38:44.943Z,97.20
2019-01-04T00:41:32.838Z,97.30
2019-01-04T00:44:21.100Z,97.40
2019-01-04T00:47:09.251Z,97.20
2019-01-04T00:49:57.437Z,97.10
2019-01-04T00:52:45.737Z,96.80
2019-01-04T00:55:54.570Z,97.00
2019-01-04T00:59:17.889Z,97.10
2019-01-04T01:02:46.738Z,97.10
2019-01-04T01:06:10.942Z,97.50
2019-01-04T01:09:35.693Z,98.00
2019-01-04T01:12:49.118Z,97.70
2019-01-04T01:16:03.352Z,97.50
2019-01-04T01:19:29.626Z,97.30
2019-01-04T01:22:51.334Z,97.20
2019-01-04T01:26:04.487Z,97.00
2019-01-04T01:29:33.982Z,96.90
2019-01-04T01:32:44.186Z,97.20
2019-01-04T01:36:13.319Z,97.00
2019-01-04T01:39:55.415Z,96.80
2019-01-04T01:43:14.927Z,96.70
2019-01-04T01:46:47.153Z,96.70
2019-01-04T01:50:05.796Z,96.60
2019-01-04T01:52:54.155Z,96.50
2019-01-04T01:55:42.064Z,96.60
2019-01-04T01:58:30.519Z,96.60
2019-01-04T02:01:19.253Z,96.70
2019-01-04T02:04:07.430Z,97.00
2019-01-04T02:06:55.453Z,96.90
2019-01-04T02:09:43.907Z,96.90
2019-01-04T02:12:32.018Z,96.90
2019-01-04T02:15:19.878Z,97.00
2019-01-04T02:18:07.918Z,97.50
2019-01-04T02:20:55.690Z,97.30
2019-01-04T02:23:44.110Z,97.20
2019-01-04T02:26:31.896Z,97.10
2019-01-04T02:29:20.010Z,97.10
2019-01-04T02:32:08.186Z,96.90
2019-01-04T02:34:55.911Z,97.00
2019-01-04T02:37:43.774Z,97.00
2019-01-04T02:40:31.505Z,96.90
2019-01-04T02:43:19.859Z,97.20
2019-01-04T02:46:07.418Z,97.00
2019-01-04T02:48:55.103Z,97.20
2019-01-04T02:51:43.301Z,97.20
2019-01-04T02:54:31.599Z,97.10
2019-01-04T02:57:19.901Z,97.00
2019-01-04T03:00:08.276Z,96.70
2019-01-04T03:02:56.931Z,96.60
2019-01-04T03:05:45.469Z,96.80
2019-01-04T03:08:33.276Z,96.70
2019-01-04T03:11:21.551Z,97.00
2019-01-04T03:14:10.001Z,97.10
2019-01-04T03:16:57.824Z,97.00
2019-01-04T03:19:46.287Z,96.90
2019-01-04T03:22:35.003Z,96.60
2019-01-04T03:25:22.737Z,96.60
2019-01-04T03:28:18.150Z,96.70
2019-01-04T03:31:05.953Z,97.00
2019-01-04T03:33:53.778Z,97.40
2019-01-04T03:36:41.887Z,97.60
2019-01-04T03:39:30.478Z,97.90
2019-01-04T03:42:18.566Z,97.90
2019-01-04T03:45:07.623Z,97.80
2019-01-04T03:47:56.522Z,97.80
2019-01-04T03:50:44.137Z,97.70
2019-01-04T03:53:32.207Z,97.60
2019-01-04T03:56:20.022Z,97.40
2019-01-04T03:59:07.974Z,97.20
2019-01-04T04:01:56.622Z,97.20
2019-01-04T04:04:45.110Z,97.20
2019-01-04T04:07:32.686Z,97.20
2019-01-04T04:10:21.034Z,97.30
2019-01-04T04:13:08.979Z,97.30
2019-01-04T04:15:56.983Z,97.50
2019-01-04T04:18:44.968Z,97.20
2019-01-04T04:21:32.581Z,97.20
2019-01-04T04:24:20.955Z,97.20
2019-01-04T04:27:08.548Z,97.20
2019-01-04T04:29:56.530Z,97.10
2019-01-04T04:32:44.324Z,97.20
2019-01-04T04:35:31.988Z,96.90
2019-01-04T04:38:20.151Z,96.80
2019-01-04T04:41:08.107Z,96.90
2019-01-04T04:43:56.594Z,96.90
2019-01-04T04:46:45.307Z,96.80
2019-01-04T04:49:33.468Z,96.80
2019-01-04T04:52:21.526Z,96.60
2019-01-04T04:55:09.624Z,96.50
2019-01-04T04:57:57.651Z,96.50
2019-01-04T05:00:46.115Z,96.50
2019-01-04T05:03:34.149Z,96.60
2019-01-04T05:06:22.156Z,96.60
2019-01-04T05:09:11.059Z,96.80
2019-01-04T05:11:59.019Z,96.90
2019-01-04T05:14:47.285Z,97.10
2019-01-04T05:17:35.083Z,97.10
2019-01-04T05:20:22.931Z,97.00
2019-01-04T05:23:10.898Z,97.20
2019-01-04T05:25:58.682Z,97.20
2019-01-04T05:28:46.786Z,97.30
2019-01-04T05:31:35.030Z,97.20
2019-01-04T05:34:23.245Z,97.40
2019-01-04T05:37:11.770Z,97.50
2019-01-04T05:40:00.107Z,97.50
2019-01-04T05:42:48.130Z,97.50
2019-01-04T05:45:36.611Z,97.50
2019-01-04T05:48:24.112Z,97.80
2019-01-04T05:51:12.394Z,98.00
2019-01-04T05:54:00.174Z,98.20
2019-01-04T05:56:48.886Z,98.40
2019-01-04T05:59:43.457Z,98.80
2019-01-04T06:02:31.463Z,98.80
2019-01-04T06:05:19.966Z,98.80
2019-01-04T06:08:07.838Z,98.60
2019-01-04T06:11:01.147Z,98.70
2019-01-04T06:13:49.191Z,98.70
2019-01-04T06:16:37.241Z,98.80
2019-01-04T06:19:25.106Z,99.00
2019-01-04T06:22:13.582Z,99.00
2019-01-04T06:25:01.939Z,99.10
2019-01-04T06:30:44.170Z,99.10
2019-01-04T06:33:32.243Z,99.30
2019-01-04T06:36:20.732Z,99.50
2019-01-04T06:39:08.962Z,99.40
2019-01-04T06:41:57.102Z,99.50
2019-01-04T06:44:50.358Z,99.60
2019-01-04T06:47:39.103Z,99.50
2019-01-04T06:50:27.154Z,99.60
2019-01-04T06:53:14.865Z,99.70
2019-01-04T06:56:05.631Z,99.40
2019-01-04T06:58:53.487Z,99.60
2019-01-04T07:01:41.406Z,99.60
2019-01-04T07:04:29.126Z,99.40
2019-01-04T07:07:16.893Z,99.10
2019-01-04T07:10:06.442Z,99.30
2019-01-04T07:12:55.274Z,99.40
2019-01-04T07:15:43.143Z,99.40
2019-01-04T07:18:30.966Z,99.30
2019-01-04T07:21:19.427Z,99.50
2019-01-04T07:24:07.203Z,99.40
2019-01-04T07:26:55.630Z,99.70
2019-01-04T07:29:44.034Z,99.80
2019-01-04T07:32:32.572Z,99.60
2019-01-04T07:35:20.413Z,99.40
2019-01-04T07:38:08.940Z,99.50
2019-01-04T07:40:57.977Z,99.90
2019-01-04T07:43:45.778Z,99.40
2019-01-04T07:46:34.062Z,99.00
2019-01-04T07:49:21.844Z,99.50
2019-01-04T07:52:10.485Z,99.80
2019-01-04T07:54:58.786Z,99.40
2019-01-04T07:57:46.508Z,99.20
2019-01-04T08:03:28.183Z,99.20
2019-01-04T08:06:16.283Z,99.30
2019-01-04T08:09:06.357Z,99.20
2019-01-04T08:11:54.937Z,99.00
2019-01-04T08:14:42.473Z,99.00
2019-01-04T08:17:30.592Z,99.20
2019-01-04T08:20:18.546Z,99.50
2019-01-04T08:23:06.842Z,99.30
2019-01-04T08:25:55.214Z,99.50
2019-01-04T08:28:43.214Z,99.60
2019-01-04T08:31:31.308Z,99.30
2019-01-04T08:34:19.828Z,99.20
2019-01-04T08:37:08.155Z,99.10
2019-01-04T08:39:56.167Z,98.90
2019-01-04T08:42:43.878Z,98.80
2019-01-04T08:45:31.945Z,99.10
2019-01-04T08:48:20.574Z,99.40
2019-01-04T08:51:08.743Z,99.20
2019-01-04T08:53:59.279Z,98.70
2019-01-04T08:56:47.575Z,98.80
2019-01-04T08:59:35.661Z,98.90
2019-01-04T09:02:24.011Z,98.70
2019-01-04T09:05:12.107Z,98.90
2019-01-04T09:11:01.682Z,99.40
2019-01-04T09:13:50.213Z,99.30
2019-01-04T09:16:38.839Z,99.10
2019-01-04T09:19:26.570Z,99.10
2019-01-04T09:22:15.810Z,99.20
2019-01-04T09:25:04.107Z,99.70
2019-01-04T09:27:52.243Z,99.60
2019-01-04T09:30:39.900Z,99.60
2019-01-04T09:33:28.975Z,99.40
2019-01-04T09:36:16.982Z,99.50
2019-01-04T09:39:08.027Z,99.60
2019-01-04T09:42:17.734Z,99.40
2019-01-04T09:45:06.517Z,99.10
2019-01-04T09:47:55.069Z,99.10
2019-01-04T09:50:42.735Z,98.80
2019-01-04T09:53:31.620Z,98.90
2019-01-04T09:56:19.978Z,98.60
2019-01-04T09:59:08.428Z,98.40
2019-01-04T10:01:56.286Z,98.20
2019-01-04T10:04:44.483Z,98.30
2019-01-04T10:07:32.384Z,98.30
2019-01-04T10:10:20.774Z,98.00
2019-01-04T10:13:08.458Z,97.60
2019-01-04T10:15:56.566Z,97.80
2019-01-04T10:18:44.714Z,98.20
2019-01-04T10:21:33.031Z,98.30
2019-01-04T10:24:20.963Z,98.40
2019-01-04T10:27:10.086Z,98.40
2019-01-04T10:29:58.327Z,99.20
2019-01-04T10:32:46.755Z,98.80
2019-01-04T10:35:35.666Z,98.20
2019-01-04T10:38:23.857Z,97.80
2019-01-04T10:41:11.502Z,97.80
2019-01-04T10:43:59.222Z,98.00
2019-01-04T10:46:48.277Z,97.50
2019-01-04T10:49:36.636Z,97.50
2019-01-04T10:52:25.093Z,98.20
2019-01-04T10:55:13.958Z,98.30
2019-01-04T10:58:01.912Z,97.90
2019-01-04T11:00:50.084Z,97.80
2019-01-04T11:03:38.885Z,97.80
2019-01-04T11:06:27.427Z,97.80
2019-01-04T11:09:15.814Z,97.80
2019-01-04T11:12:04.643Z,97.90
2019-01-04T11:14:52.999Z,97.80
2019-01-04T11:17:41.471Z,97.60
2019-01-04T11:20:37.828Z,97.80
2019-01-04T11:23:53.859Z,97.80
2019-01-04T11:26:52.895Z,98.20
2019-01-04T11:30:17.950Z,97.70
2019-01-04T11:33:28.696Z,97.70
2019-01-04T11:36:48.636Z,97.50
2019-01-04T11:40:21.271Z,97.60
2019-01-04T11:43:49.358Z,97.70
2019-01-04T11:46:45.157Z,98.40
2019-01-04T11:50:00.021Z,98.40
2019-01-04T11:52:59.596Z,98.70
2019-01-04T11:55:48.624Z,98.70
2019-01-04T11:58:36.958Z,98.70
2019-01-04T12:01:25.091Z,98.90
2019-01-04T12:04:13.787Z,98.80
2019-01-04T12:07:02.077Z,98.70
2019-01-04T12:09:49.746Z,98.10
2019-01-04T12:12:38.471Z,97.40
2019-01-04T12:15:26.134Z,97.30
2019-01-04T12:18:15.155Z,97.50
2019-01-04T12:21:02.872Z,97.40
2019-01-04T12:23:51.547Z,97.40
2019-01-04T12:26:40.463Z,97.60
2019-01-04T12:29:29.696Z,97.40
2019-01-04T12:32:18.672Z,97.60
2019-01-04T12:35:07.498Z,98.10
2019-01-04T12:37:56.490Z,99.00
2019-01-04T12:40:45.609Z,99.10
2019-01-04T12:43:37.417Z,98.80
2019-01-04T12:46:30.415Z,98.90
2019-01-04T12:49:18.576Z,98.50
2019-01-04T12:52:07.858Z,98.00
2019-01-04T12:54:56.438Z,97.80
2019-01-04T12:57:44.505Z,97.80
2019-01-04T13:00:32.365Z,98.50
2019-01-04T13:03:21.024Z,98.80
2019-01-04T13:06:09.422Z,98.90
2019-01-04T13:08:57.925Z,99.10
2019-01-04T13:11:46.354Z,99.10
2019-01-04T13:14:34.438Z,98.90
2019-01-04T13:17:23.108Z,98.90
2019-01-04T13:20:12.072Z,98.60
2019-01-04T13:23:00.446Z,98.80
2019-01-04T13:25:51.456Z,98.90
2019-01-04T13:28:39.823Z,99.30
2019-01-04T13:31:27.829Z,99.40
2019-01-04T13:34:16.626Z,99.50
2019-01-04T13:37:05.052Z,99.50
2019-01-04T13:39:53.277Z,99.50
2019-01-04T13:42:41.791Z,99.70
2019-01-04T13:45:30.770Z,99.90
2019-01-04T13:48:19.204Z,99.90
2019-01-04T13:51:07.638Z,99.90
2019-01-04T13:53:56.682Z,99.90
2019-01-04T13:56:44.899Z,99.90
2019-01-04T13:59:32.990Z,99.90
2019-01-04T14:02:24.011Z,99.90
2019-01-04T14:05:12.173Z,99.90
2019-01-04T14:08:00.869Z,99.80
2019-01-04T14:10:49.655Z,99.70
2019-01-04T14:13:38.817Z,99.80
2019-01-04T14:16:26.962Z,99.90
2019-01-04T14:19:15.111Z,99.90
2019-01-04T14:22:03.203Z,99.70
2019-01-04T14:24:51.237Z,99.90
2019-01-04T14:27:40.195Z,99.90
2019-01-04T14:30:28.071Z,99.90
2019-01-04T14:33:17.348Z,99.90
2019-01-04T14:36:07.036Z,99.70
2019-01-04T14:38:56.123Z,99.70
2019-01-04T14:41:44.019Z,99.70
2019-01-04T14:44:32.771Z,99.90
2019-01-04T14:47:21.231Z,99.90
2019-01-04T14:50:10.224Z,99.90
2019-01-04T14:52:58.376Z,99.90
2019-01-04T14:55:46.166Z,99.90
2019-01-04T14:58:34.098Z,99.90
2019-01-04T15:01:21.757Z,99.90
2019-01-04T15:04:10.410Z,99.90
2019-01-04T15:06:59.017Z,99.90
2019-01-04T15:09:47.188Z,99.90
2019-01-04T15:12:35.558Z,99.90
2019-01-04T15:15:24.115Z,99.90
2019-01-04T15:18:12.759Z,99.90
2019-01-04T15:21:00.928Z,99.90
2019-01-04T15:23:49.251Z,99.90
2019-01-04T15:26:37.470Z,99.90
2019-01-04T15:29:26.206Z,99.90
2019-01-04T15:32:14.619Z,99.80
2019-01-04T15:35:02.850Z,99.80
2019-01-04T15:37:52.038Z,99.80
2019-01-04T15:40:41.167Z,99.70
2019-01-04T15:43:29.470Z,99.80
2019-01-04T15:46:17.826Z,99.90
2019-01-04T15:49:06.941Z,99.70
2019-01-04T15:51:55.574Z,99.90
2019-01-04T15:54:44.431Z,99.90
2019-01-04T15:57:32.144Z,99.90
2019-01-04T16:00:20.078Z,99.90
2019-01-04T16:03:08.066Z,99.90
2019-01-04T16:05:56.541Z,99.90
2019-01-04T16:08:45.021Z,99.90
2019-01-04T16:11:33.478Z,99.90
2019-01-04T16:14:21.847Z,99.90
2019-01-04T16:17:12.187Z,99.90
2019-01-04T16:20:01.238Z,99.90
2019-01-04T16:22:49.530Z,99.90
2019-01-04T16:25:37.250Z,99.90
2019-01-04T16:28:25.458Z,99.90
2019-01-04T16:31:14.430Z,99.90
2019-01-04T16:34:02.427Z,99.90
2019-01-04T16:36:50.237Z,99.90
2019-01-04T16:39:38.295Z,99.90
2019-01-04T16:42:26.183Z,99.90
2019-01-04T16:45:15.035Z,99.90
2019-01-04T16:48:03.333Z,99.90
2019-01-04T16:50:52.108Z,99.90
2019-01-04T16:53:40.470Z,99.90
2019-01-04T16:56:28.992Z,99.90
2019-01-04T16:59:16.825Z,99.90
2019-01-04T17:02:06.079Z,99.90
2019-01-04T17:04:55.419Z,99.90
2019-01-04T17:07:43.221Z,99.90
2019-01-04T17:10:36.650Z,99.90
2019-01-04T17:13:24.862Z,99.90
2019-01-04T17:16:13.854Z,99.90
2019-01-04T17:19:01.831Z,99.90
2019-01-04T17:21:50.194Z,99.90
2019-01-04T17:24:38.563Z,99.90
2019-01-04T17:27:26.278Z,99.90
2019-01-04T17:30:15.029Z,99.90
2019-01-04T17:33:02.566Z,99.90
2019-01-04T17:35:50.456Z,99.90
2019-01-04T17:38:39.578Z,99.90
2019-01-04T17:41:27.880Z,99.90
2019-01-04T17:44:15.463Z,99.90
2019-01-04T17:47:03.677Z,99.90
2019-01-04T17:49:52.042Z,99.90
2019-01-04T17:52:40.822Z,99.90
2019-01-04T17:55:28.830Z,99.90
2019-01-04T17:58:17.517Z,99.90
2019-01-04T18:01:05.762Z,99.90
2019-01-04T18:03:54.566Z,99.90
2019-01-04T18:06:42.562Z,99.90
2019-01-04T18:09:30.581Z,99.90
2019-01-04T18:12:20.428Z,99.90
2019-01-04T18:15:09.538Z,99.90
2019-01-04T18:17:58.725Z,99.90
2019-01-04T18:20:52.247Z,99.90
2019-01-04T18:23:40.358Z,99.90
2019-01-04T18:26:29.066Z,99.90
2019-01-04T18:29:17.254Z,99.90
2019-01-04T18:32:06.126Z,99.90
2019-01-04T18:34:53.785Z,99.90
2019-01-04T18:37:42.648Z,99.90
2019-01-04T18:40:32.249Z,99.90
2019-01-04T18:43:21.404Z,99.90
2019-01-04T18:46:10.269Z,99.90
2019-01-04T18:48:58.803Z,99.90
2019-01-04T18:51:47.831Z,99.90
2019-01-04T18:54:37.029Z,99.90
2019-01-04T18:57:25.819Z,99.90
2019-01-04T19:00:13.886Z,99.90
2019-01-04T19:03:03.141Z,99.90
2019-01-04T19:05:52.093Z,99.90
2019-01-04T19:08:40.590Z,99.90
2019-01-04T19:11:29.058Z,99.90
2019-01-04T19:14:16.939Z,99.90
2019-01-04T19:17:05.491Z,99.90
2019-01-04T19:19:53.425Z,99.90
2019-01-04T19:22:43.017Z,99.90
2019-01-04T19:25:31.804Z,99.90
2019-01-04T19:28:20.713Z,99.90
2019-01-04T19:31:09.145Z,99.90
2019-01-04T19:33:58.603Z,99.90
2019-01-04T19:36:46.951Z,99.90
2019-01-04T19:39:37.103Z,99.90
2019-01-04T19:42:25.561Z,99.90
2019-01-04T19:45:14.214Z,99.90
2019-01-04T19:48:02.731Z,99.90
2019-01-04T19:50:51.164Z,99.90
2019-01-04T19:53:39.736Z,99.90
2019-01-04T19:56:27.926Z,99.90
2019-01-04T19:59:16.578Z,99.90
2019-01-04T20:02:05.096Z,99.90
2019-01-04T20:04:52.906Z,99.90
2019-01-04T20:08:16.250Z,99.90
2019-01-04T20:12:33.470Z,99.90
2019-01-04T20:16:13.684Z,99.90
2019-01-04T20:19:21.495Z,99.90
2019-01-04T20:25:52.662Z,99.90
2019-01-04T20:29:02.762Z,99.90
2019-01-04T20:32:08.122Z,99.90
2019-01-04T20:35:12.002Z,99.90
2019-01-04T20:38:16.041Z,99.90
2019-01-04T20:41:30.110Z,99.90
2019-01-04T20:44:57.091Z,99.90
2019-01-04T20:48:04.446Z,99.90
2019-01-04T20:51:14.791Z,99.90
2019-01-04T20:54:29.302Z,99.90
2019-01-04T20:57:40.790Z,99.90
2019-01-04T21:00:54.630Z,99.90
2019-01-04T21:03:55.874Z,99.90
2019-01-04T21:07:08.980Z,99.90
2019-01-04T21:10:22.306Z,99.90
2019-01-04T21:13:30.029Z,99.90
2019-01-04T21:16:40.289Z,99.90
2019-01-04T21:19:46.503Z,99.90
2019-01-04T21:22:53.929Z,99.90
2019-01-04T21:26:04.425Z,99.90
2019-01-04T21:29:18.207Z,99.90
2019-01-04T21:32:23.913Z,99.90
2019-01-04T21:35:38.755Z,99.90
2019-01-04T21:38:49.113Z,99.90
2019-01-04T21:41:55.502Z,99.90
2019-01-04T21:45:16.759Z,99.90
2019-01-04T21:48:30.490Z,99.90
2019-01-04T21:51:50.347Z,99.90
2019-01-04T21:54:57.255Z,99.90
2019-01-04T21:58:07.511Z,99.90
2019-01-04T22:01:29.750Z,99.90
2019-01-04T22:04:48.827Z,99.90
2019-01-04T22:08:15.326Z,99.90
2019-01-04T22:11:19.039Z,99.90
2019-01-04T22:14:45.210Z,99.90
2019-01-04T22:18:01.814Z,99.90
2019-01-04T22:21:11.418Z,99.90
2019-01-04T22:24:14.649Z,99.90
2019-01-04T22:27:20.418Z,99.90
2019-01-04T22:30:27.215Z,99.90
2019-01-04T22:33:35.000Z,99.90
2019-01-04T22:36:48.217Z,99.90
2019-01-04T22:39:54.579Z,99.90
2019-01-04T22:43:00.575Z,99.90
2019-01-04T22:46:11.061Z,99.90
2019-01-04T22:49:33.390Z,99.90
2019-01-04T22:52:40.622Z,99.90
2019-01-04T22:55:39.762Z,99.90
2019-01-04T22:58:47.165Z,99.90
2019-01-04T23:01:53.256Z,99.90
2019-01-04T23:05:07.252Z,99.90
2019-01-04T23:08:12.595Z,99.90
2019-01-04T23:11:18.405Z,99.90
2019-01-04T23:14:32.355Z,99.90
2019-01-04T23:17:39.262Z,99.90
2019-01-04T23:20:48.529Z,99.90
2019-01-04T23:23:57.275Z,99.90
2019-01-04T23:26:59.982Z,99.90
2019-01-04T23:30:13.343Z,99.90
2019-01-04T23:33:19.295Z,99.90
2019-01-04T23:36:32.546Z,99.90
2019-01-04T23:39:43.358Z,99.90
2019-01-04T23:42:49.137Z,99.90
2019-01-04T23:45:49.213Z,99.90
2019-01-04T23:48:54.919Z,99.90
2019-01-04T23:51:59.723Z,99.90
2019-01-04T23:54:59.746Z,99.90
2019-01-04T23:58:18.898Z,99.90
